createdAt,value
2024-04-14T00:09:26.880Z,96577.28
2024-04-14T00:19:33.963Z,96567.00
2024-04-14T00:29:38.846Z,96563.50
2024-04-14T00:39:48.776Z,96551.91
2024-04-14T00:49:53.017Z,96538.91
2024-04-14T01:00:00.234Z,96537.28
2024-04-14T01:10:04.638Z,96528.38
2024-04-14T01:20:12.803Z,96521.63
2024-04-14T01:30:19.663Z,96518.91
2024-04-14T01:40:23.850Z,96514.31
2024-04-14T01:50:30.608Z,96511.31
2024-04-14T02:00:34.903Z,96511.59
2024-04-14T02:10:44.946Z,96499.19
2024-04-14T02:20:49.177Z,96510.25
2024-04-14T02:30:56.551Z,96504.53
2024-04-14T02:41:01.493Z,96501.84
2024-04-14T02:51:08.405Z,96492.66
2024-04-14T03:01:14.998Z,96494.53
2024-04-14T03:11:21.878Z,96488.59
2024-04-14T03:21:26.337Z,96486.16
2024-04-14T03:31:33.343Z,96487.75
2024-04-14T03:41:37.560Z,96475.59
2024-04-14T03:51:44.394Z,96470.16
2024-04-14T04:01:48.668Z,96469.59
2024-04-14T04:11:55.480Z,96473.59
2024-04-14T04:21:59.683Z,96477.66
2024-04-14T04:32:06.739Z,96479.28
2024-04-14T04:42:10.962Z,96485.19
2024-04-14T04:52:17.770Z,96478.19
2024-04-14T05:02:22.065Z,96488.94
2024-04-14T05:12:28.945Z,96492.13
2024-04-14T05:22:33.131Z,96491.06
2024-04-14T05:32:40.674Z,96494.00
2024-04-14T05:42:45.202Z,96491.59
2024-04-14T05:52:52.042Z,96507.25
2024-04-14T06:02:56.351Z,96511.59
2024-04-14T06:13:03.220Z,96523.25
2024-04-14T06:23:07.628Z,96527.06
2024-04-14T06:33:14.475Z,96529.25
2024-04-14T06:43:18.792Z,96529.56
2024-04-14T06:53:25.608Z,96521.78
2024-04-14T07:03:30.858Z,96525.03
2024-04-14T07:13:37.877Z,96531.25
2024-04-14T07:23:42.199Z,96527.81
2024-04-14T07:33:49.022Z,96533.22
2024-04-14T07:43:53.443Z,96540.53
2024-04-14T07:54:00.416Z,96540.75
2024-04-14T08:04:04.827Z,96538.31
2024-04-14T08:14:13.402Z,96536.13
2024-04-14T08:24:17.577Z,96535.22
2024-04-14T08:34:24.532Z,96528.38
2024-04-14T08:44:29.774Z,96530.72
2024-04-14T08:54:36.763Z,96520.56
2024-04-14T09:04:43.534Z,96523.69
2024-04-14T09:14:52.663Z,96518.31
2024-04-14T09:24:56.897Z,96511.13
2024-04-14T09:35:03.752Z,96517.19
2024-04-14T09:45:08.600Z,96509.47
2024-04-14T09:55:15.389Z,96500.88
2024-04-14T10:05:20.590Z,96503.44
2024-04-14T10:15:30.005Z,96488.09
2024-04-14T10:25:35.535Z,96473.22
2024-04-14T10:35:42.394Z,96470.63
2024-04-14T10:45:46.639Z,96443.47
2024-04-14T10:55:53.464Z,96455.38
2024-04-14T11:05:58.008Z,96431.81
2024-04-14T11:16:06.611Z,96429.53
2024-04-14T11:26:11.029Z,96415.78
2024-04-14T11:36:17.805Z,96401.44
2024-04-14T11:46:22.045Z,96397.34
2024-04-14T11:56:28.861Z,96395.53
2024-04-14T12:06:33.761Z,96383.88
2024-04-14T12:16:42.836Z,96361.25
2024-04-14T12:26:47.146Z,96374.13
2024-04-14T12:36:53.962Z,96366.91
2024-04-14T12:46:58.217Z,96355.41
2024-04-14T12:57:05.336Z,96352.06
2024-04-14T13:07:09.618Z,96314.25
2024-04-14T13:17:16.507Z,96300.63
2024-04-14T13:27:20.740Z,96298.00
2024-04-14T13:37:27.602Z,96279.91
2024-04-14T13:47:32.761Z,96273.28
2024-04-14T13:57:39.629Z,96268.81
2024-04-14T14:07:43.865Z,96259.69
2024-04-14T14:17:50.731Z,96236.28
2024-04-14T14:27:55.014Z,96236.22
2024-04-14T14:38:03.783Z,96214.38
2024-04-14T14:48:09.323Z,96210.50
2024-04-14T14:58:16.199Z,96210.56
2024-04-14T15:08:20.451Z,96203.81
2024-04-14T15:18:28.085Z,96196.00
2024-04-14T15:28:32.335Z,96189.31
2024-04-14T15:38:39.917Z,96172.22
2024-04-14T15:48:44.365Z,96154.28
2024-04-14T15:58:51.561Z,96146.44
2024-04-14T16:08:58.026Z,96132.66
2024-04-14T16:19:04.922Z,96124.66
2024-04-14T16:29:09.277Z,96107.75
2024-04-14T16:39:16.086Z,96099.25
2024-04-14T16:49:20.399Z,96093.97
2024-04-14T16:59:27.386Z,96083.25
2024-04-14T17:09:33.255Z,96070.56
2024-04-14T17:19:40.077Z,96067.03
2024-04-14T17:29:44.261Z,96061.38
2024-04-14T17:39:51.322Z,96046.28
2024-04-14T17:49:55.580Z,96046.41
2024-04-14T18:00:02.493Z,96035.56
2024-04-14T18:10:06.983Z,96042.66
2024-04-14T18:20:14.820Z,96031.00
2024-04-14T18:30:19.323Z,96036.59
2024-04-14T18:40:26.177Z,96045.94
2024-04-14T18:50:30.372Z,96047.41
2024-04-14T19:00:37.342Z,96052.25
2024-04-14T19:10:41.683Z,96047.94
2024-04-14T19:20:48.549Z,96040.94
2024-04-14T19:30:52.795Z,96027.47
2024-04-14T19:41:00.792Z,96017.84
2024-04-14T19:51:05.144Z,96008.75
2024-04-14T20:01:12.039Z,95993.28
2024-04-14T20:11:16.298Z,95980.69
2024-04-14T20:21:23.150Z,95981.50
2024-04-14T20:31:29.407Z,95976.16
2024-04-14T20:41:36.178Z,95952.53
2024-04-14T20:51:40.369Z,95931.50
2024-04-14T21:01:47.223Z,95925.16
2024-04-14T21:11:51.429Z,95912.00
2024-04-14T21:21:58.807Z,95904.03
2024-04-14T21:32:05.875Z,95899.03
2024-04-14T21:42:13.274Z,95871.28
2024-04-14T21:52:17.727Z,95884.81
2024-04-14T22:02:24.654Z,95856.53
2024-04-14T22:12:28.980Z,95833.59
2024-04-14T22:22:36.242Z,95824.47
2024-04-14T22:32:40.484Z,95810.09
2024-04-14T22:42:47.412Z,95805.00
2024-04-14T22:52:51.587Z,95793.13
2024-04-14T23:02:58.465Z,95799.25
2024-04-14T23:13:03.424Z,95802.56
2024-04-14T23:23:10.297Z,95811.63
2024-04-14T23:33:14.534Z,95797.75
2024-04-14T23:43:21.445Z,95794.25
2024-04-14T23:53:25.658Z,95778.25
